sensor_id;sensor_type;location;lat;lon;timestamp;P1;durP1;ratioP1;P2;durP2;ratioP2
18997;SDS011;9632;51.018;4.284;2023-02-28T00:00:16;6.63;;;3.20;;
18997;SDS011;9632;51.018;4.284;2023-02-28T00:02:43;7.60;;;3.20;;
18997;SDS011;9632;51.018;4.284;2023-02-28T00:05:09;9.17;;;3.40;;
18997;SDS011;9632;51.018;4.284;2023-02-28T00:07:37;5.47;;;3.00;;
18997;SDS011;9632;51.018;4.284;2023-02-28T00:10:03;6.67;;;3.50;;
18997;SDS011;9632;51.018;4.284;2023-02-28T00:12:31;5.60;;;3.20;;
18997;SDS011;9632;51.018;4.284;2023-02-28T00:14:57;8.57;;;3.60;;
18997;SDS011;9632;51.018;4.284;2023-02-28T00:17:22;5.97;;;3.40;;
18997;SDS011;9632;51.018;4.284;2023-02-28T00:19:48;7.33;;;3.50;;
18997;SDS011;9632;51.018;4.284;2023-02-28T00:22:19;8.23;;;3.30;;
18997;SDS011;9632;51.018;4.284;2023-02-28T00:24:45;7.50;;;3.37;;
18997;SDS011;9632;51.018;4.284;2023-02-28T00:27:12;7.40;;;3.53;;
18997;SDS011;9632;51.018;4.284;2023-02-28T00:29:38;10.23;;;3.70;;
18997;SDS011;9632;51.018;4.284;2023-02-28T00:32:04;9.67;;;3.70;;
18997;SDS011;9632;51.018;4.284;2023-02-28T00:34:30;8.57;;;3.83;;
18997;SDS011;9632;51.018;4.284;2023-02-28T00:36:57;9.17;;;4.13;;
18997;SDS011;9632;51.018;4.284;2023-02-28T00:39:23;9.00;;;4.40;;
18997;SDS011;9632;51.018;4.284;2023-02-28T00:41:48;9.80;;;4.13;;
18997;SDS011;9632;51.018;4.284;2023-02-28T00:44:14;8.43;;;4.07;;
18997;SDS011;9632;51.018;4.284;2023-02-28T00:46:40;8.83;;;4.40;;
18997;SDS011;9632;51.018;4.284;2023-02-28T00:49:05;9.23;;;4.37;;
18997;SDS011;9632;51.018;4.284;2023-02-28T00:51:31;12.67;;;4.80;;
18997;SDS011;9632;51.018;4.284;2023-02-28T00:53:56;10.53;;;4.40;;
18997;SDS011;9632;51.018;4.284;2023-02-28T00:56:22;10.00;;;4.43;;
18997;SDS011;9632;51.018;4.284;2023-02-28T00:58:48;9.97;;;4.33;;
18997;SDS011;9632;51.018;4.284;2023-02-28T01:01:13;10.90;;;4.67;;
18997;SDS011;9632;51.018;4.284;2023-02-28T01:03:39;10.80;;;4.20;;
18997;SDS011;9632;51.018;4.284;2023-02-28T01:06:05;8.80;;;4.33;;
18997;SDS011;9632;51.018;4.284;2023-02-28T01:08:31;12.13;;;4.60;;
18997;SDS011;9632;51.018;4.284;2023-02-28T01:10:56;11.57;;;4.73;;
18997;SDS011;9632;51.018;4.284;2023-02-28T01:13:22;9.80;;;4.87;;
18997;SDS011;9632;51.018;4.284;2023-02-28T01:15:55;11.23;;;4.67;;
18997;SDS011;9632;51.018;4.284;2023-02-28T01:18:21;11.03;;;4.60;;
18997;SDS011;9632;51.018;4.284;2023-02-28T01:20:48;10.87;;;4.70;;
18997;SDS011;9632;51.018;4.284;2023-02-28T01:23:14;9.93;;;4.80;;
18997;SDS011;9632;51.018;4.284;2023-02-28T01:25:39;10.40;;;5.03;;
18997;SDS011;9632;51.018;4.284;2023-02-28T01:28:05;12.27;;;5.13;;
18997;SDS011;9632;51.018;4.284;2023-02-28T01:30:31;12.57;;;5.37;;
18997;SDS011;9632;51.018;4.284;2023-02-28T01:32:57;9.80;;;4.80;;
18997;SDS011;9632;51.018;4.284;2023-02-28T01:35:24;9.97;;;4.80;;
18997;SDS011;9632;51.018;4.284;2023-02-28T01:37:50;9.23;;;5.23;;
18997;SDS011;9632;51.018;4.284;2023-02-28T01:40:15;10.60;;;4.53;;
18997;SDS011;9632;51.018;4.284;2023-02-28T01:42:41;11.00;;;4.90;;
18997;SDS011;9632;51.018;4.284;2023-02-28T01:45:22;12.57;;;5.53;;
18997;SDS011;9632;51.018;4.284;2023-02-28T01:48:02;12.00;;;5.20;;
18997;SDS011;9632;51.018;4.284;2023-02-28T01:50:34;9.17;;;4.70;;
18997;SDS011;9632;51.018;4.284;2023-02-28T01:53:04;11.73;;;5.37;;
18997;SDS011;9632;51.018;4.284;2023-02-28T01:55:33;13.07;;;5.53;;
18997;SDS011;9632;51.018;4.284;2023-02-28T01:58:01;10.83;;;5.50;;
18997;SDS011;9632;51.018;4.284;2023-02-28T02:00:29;9.17;;;5.00;;
18997;SDS011;9632;51.018;4.284;2023-02-28T02:02:58;8.97;;;5.07;;
18997;SDS011;9632;51.018;4.284;2023-02-28T02:05:27;9.87;;;5.30;;
18997;SDS011;9632;51.018;4.284;2023-02-28T02:07:56;13.17;;;5.80;;
18997;SDS011;9632;51.018;4.284;2023-02-28T02:10:33;12.00;;;5.80;;
18997;SDS011;9632;51.018;4.284;2023-02-28T02:13:29;9.10;;;5.50;;
18997;SDS011;9632;51.018;4.284;2023-02-28T02:18:51;11.20;;;5.37;;
18997;SDS011;9632;51.018;4.284;2023-02-28T02:24:53;12.57;;;5.30;;
18997;SDS011;9632;51.018;4.284;2023-02-28T02:33:16;11.63;;;6.13;;
18997;SDS011;9632;51.018;4.284;2023-02-28T02:36:05;12.10;;;6.00;;
18997;SDS011;9632;51.018;4.284;2023-02-28T02:43:58;9.90;;;5.27;;
18997;SDS011;9632;51.018;4.284;2023-02-28T02:46:31;12.30;;;5.90;;
18997;SDS011;9632;51.018;4.284;2023-02-28T02:49:00;14.43;;;5.33;;
18997;SDS011;9632;51.018;4.284;2023-02-28T02:51:29;8.43;;;5.40;;
18997;SDS011;9632;51.018;4.284;2023-02-28T02:54:16;15.20;;;6.10;;
18997;SDS011;9632;51.018;4.284;2023-02-28T02:56:46;13.47;;;6.23;;
18997;SDS011;9632;51.018;4.284;2023-02-28T02:59:13;13.77;;;5.60;;
18997;SDS011;9632;51.018;4.284;2023-02-28T03:01:46;12.33;;;5.93;;
18997;SDS011;9632;51.018;4.284;2023-02-28T03:04:17;11.57;;;6.00;;
18997;SDS011;9632;51.018;4.284;2023-02-28T03:06:45;14.40;;;6.40;;
18997;SDS011;9632;51.018;4.284;2023-02-28T03:09:11;10.57;;;5.67;;
18997;SDS011;9632;51.018;4.284;2023-02-28T03:11:37;12.47;;;6.00;;
18997;SDS011;9632;51.018;4.284;2023-02-28T03:16:45;10.00;;;5.90;;
18997;SDS011;9632;51.018;4.284;2023-02-28T03:24:49;10.63;;;5.70;;
18997;SDS011;9632;51.018;4.284;2023-02-28T03:32:33;9.83;;;5.90;;
18997;SDS011;9632;51.018;4.284;2023-02-28T03:35:13;13.83;;;5.80;;
18997;SDS011;9632;51.018;4.284;2023-02-28T03:38:00;12.33;;;5.70;;
18997;SDS011;9632;51.018;4.284;2023-02-28T03:40:55;10.00;;;5.27;;
18997;SDS011;9632;51.018;4.284;2023-02-28T03:43:35;13.63;;;5.80;;
18997;SDS011;9632;51.018;4.284;2023-02-28T03:46:04;12.47;;;5.50;;
18997;SDS011;9632;51.018;4.284;2023-02-28T03:48:36;11.07;;;5.43;;
18997;SDS011;9632;51.018;4.284;2023-02-28T03:51:07;12.33;;;5.50;;
18997;SDS011;9632;51.018;4.284;2023-02-28T03:53:36;11.10;;;5.73;;
18997;SDS011;9632;51.018;4.284;2023-02-28T03:56:09;10.80;;;5.90;;
18997;SDS011;9632;51.018;4.284;2023-02-28T03:59:00;12.83;;;5.77;;
18997;SDS011;9632;51.018;4.284;2023-02-28T04:01:29;13.80;;;5.23;;
18997;SDS011;9632;51.018;4.284;2023-02-28T04:03:58;10.30;;;5.40;;
18997;SDS011;9632;51.018;4.284;2023-02-28T04:06:24;11.47;;;5.17;;
18997;SDS011;9632;51.018;4.284;2023-02-28T04:08:50;16.40;;;5.40;;
18997;SDS011;9632;51.018;4.284;2023-02-28T04:11:23;12.53;;;5.63;;
18997;SDS011;9632;51.018;4.284;2023-02-28T04:14:01;11.83;;;5.37;;
18997;SDS011;9632;51.018;4.284;2023-02-28T04:16:28;11.40;;;5.47;;
18997;SDS011;9632;51.018;4.284;2023-02-28T04:18:54;10.10;;;5.03;;
18997;SDS011;9632;51.018;4.284;2023-02-28T04:21:27;12.00;;;5.37;;
18997;SDS011;9632;51.018;4.284;2023-02-28T04:23:53;8.93;;;5.03;;
18997;SDS011;9632;51.018;4.284;2023-02-28T04:26:20;9.87;;;5.37;;
18997;SDS011;9632;51.018;4.284;2023-02-28T04:28:45;14.47;;;5.47;;
18997;SDS011;9632;51.018;4.284;2023-02-28T04:31:11;9.47;;;5.10;;
18997;SDS011;9632;51.018;4.284;2023-02-28T04:33:36;13.57;;;5.60;;
18997;SDS011;9632;51.018;4.284;2023-02-28T04:36:03;8.80;;;5.10;;
18997;SDS011;9632;51.018;4.284;2023-02-28T04:38:35;11.70;;;6.53;;
18997;SDS011;9632;51.018;4.284;2023-02-28T04:41:02;11.63;;;5.80;;
18997;SDS011;9632;51.018;4.284;2023-02-28T04:43:28;12.13;;;5.77;;
18997;SDS011;9632;51.018;4.284;2023-02-28T04:45:56;10.87;;;5.17;;
18997;SDS011;9632;51.018;4.284;2023-02-28T04:48:23;12.90;;;5.80;;
18997;SDS011;9632;51.018;4.284;2023-02-28T04:50:49;12.03;;;5.93;;
18997;SDS011;9632;51.018;4.284;2023-02-28T04:53:15;15.90;;;5.90;;
18997;SDS011;9632;51.018;4.284;2023-02-28T04:55:41;11.33;;;5.60;;
18997;SDS011;9632;51.018;4.284;2023-02-28T04:58:06;13.53;;;5.63;;
18997;SDS011;9632;51.018;4.284;2023-02-28T05:00:32;13.17;;;6.10;;
18997;SDS011;9632;51.018;4.284;2023-02-28T05:02:58;10.63;;;5.73;;
18997;SDS011;9632;51.018;4.284;2023-02-28T05:05:23;12.00;;;5.80;;
18997;SDS011;9632;51.018;4.284;2023-02-28T05:07:49;12.40;;;5.63;;
18997;SDS011;9632;51.018;4.284;2023-02-28T05:10:14;10.97;;;6.13;;
18997;SDS011;9632;51.018;4.284;2023-02-28T05:12:40;11.30;;;5.70;;
18997;SDS011;9632;51.018;4.284;2023-02-28T05:15:06;12.53;;;6.13;;
18997;SDS011;9632;51.018;4.284;2023-02-28T05:17:33;12.90;;;5.97;;
18997;SDS011;9632;51.018;4.284;2023-02-28T05:19:59;12.10;;;6.03;;
18997;SDS011;9632;51.018;4.284;2023-02-28T05:22:24;11.17;;;5.83;;
18997;SDS011;9632;51.018;4.284;2023-02-28T05:24:50;13.73;;;6.33;;
18997;SDS011;9632;51.018;4.284;2023-02-28T05:27:15;14.33;;;5.60;;
18997;SDS011;9632;51.018;4.284;2023-02-28T05:29:41;11.90;;;5.57;;
18997;SDS011;9632;51.018;4.284;2023-02-28T05:32:11;12.27;;;5.57;;
18997;SDS011;9632;51.018;4.284;2023-02-28T05:34:37;14.03;;;5.87;;
18997;SDS011;9632;51.018;4.284;2023-02-28T05:37:04;10.07;;;5.30;;
18997;SDS011;9632;51.018;4.284;2023-02-28T05:39:30;11.60;;;5.53;;
18997;SDS011;9632;51.018;4.284;2023-02-28T05:41:56;12.43;;;5.60;;
18997;SDS011;9632;51.018;4.284;2023-02-28T05:44:21;16.47;;;6.10;;
18997;SDS011;9632;51.018;4.284;2023-02-28T05:46:47;12.70;;;6.30;;
18997;SDS011;9632;51.018;4.284;2023-02-28T05:49:13;11.83;;;5.90;;
18997;SDS011;9632;51.018;4.284;2023-02-28T05:51:38;13.83;;;5.47;;
18997;SDS011;9632;51.018;4.284;2023-02-28T05:54:05;13.17;;;5.57;;
18997;SDS011;9632;51.018;4.284;2023-02-28T05:56:31;13.77;;;6.00;;
18997;SDS011;9632;51.018;4.284;2023-02-28T05:58:59;13.50;;;5.93;;
18997;SDS011;9632;51.018;4.284;2023-02-28T06:01:38;9.63;;;5.23;;
18997;SDS011;9632;51.018;4.284;2023-02-28T06:04:06;12.80;;;5.50;;
18997;SDS011;9632;51.018;4.284;2023-02-28T06:06:34;11.50;;;5.83;;
18997;SDS011;9632;51.018;4.284;2023-02-28T06:09:00;17.00;;;5.80;;
18997;SDS011;9632;51.018;4.284;2023-02-28T06:11:26;9.63;;;5.03;;
18997;SDS011;9632;51.018;4.284;2023-02-28T06:13:58;11.23;;;5.53;;
18997;SDS011;9632;51.018;4.284;2023-02-28T06:16:29;11.43;;;5.43;;
18997;SDS011;9632;51.018;4.284;2023-02-28T06:18:59;11.93;;;5.60;;
18997;SDS011;9632;51.018;4.284;2023-02-28T06:21:27;11.40;;;6.00;;
18997;SDS011;9632;51.018;4.284;2023-02-28T06:23:53;11.13;;;5.40;;
18997;SDS011;9632;51.018;4.284;2023-02-28T06:26:19;12.73;;;5.47;;
18997;SDS011;9632;51.018;4.284;2023-02-28T06:28:45;11.73;;;5.43;;
18997;SDS011;9632;51.018;4.284;2023-02-28T06:31:13;9.03;;;5.00;;
18997;SDS011;9632;51.018;4.284;2023-02-28T06:33:40;10.87;;;5.30;;
18997;SDS011;9632;51.018;4.284;2023-02-28T06:36:07;12.83;;;5.77;;
18997;SDS011;9632;51.018;4.284;2023-02-28T06:38:34;12.03;;;5.70;;
18997;SDS011;9632;51.018;4.284;2023-02-28T06:41:01;12.90;;;5.70;;
18997;SDS011;9632;51.018;4.284;2023-02-28T06:43:31;13.83;;;5.50;;
18997;SDS011;9632;51.018;4.284;2023-02-28T06:45:59;12.80;;;5.80;;
18997;SDS011;9632;51.018;4.284;2023-02-28T06:48:26;10.37;;;5.73;;
18997;SDS011;9632;51.018;4.284;2023-02-28T06:50:52;10.77;;;5.50;;
18997;SDS011;9632;51.018;4.284;2023-02-28T06:53:27;11.27;;;5.80;;
18997;SDS011;9632;51.018;4.284;2023-02-28T06:55:53;12.97;;;5.47;;
18997;SDS011;9632;51.018;4.284;2023-02-28T06:58:18;15.17;;;5.73;;
18997;SDS011;9632;51.018;4.284;2023-02-28T07:00:45;12.80;;;6.07;;
18997;SDS011;9632;51.018;4.284;2023-02-28T07:03:11;11.53;;;6.07;;
18997;SDS011;9632;51.018;4.284;2023-02-28T07:07:58;16.47;;;6.20;;
18997;SDS011;9632;51.018;4.284;2023-02-28T07:10:23;13.73;;;5.97;;
18997;SDS011;9632;51.018;4.284;2023-02-28T07:12:49;12.13;;;6.33;;
18997;SDS011;9632;51.018;4.284;2023-02-28T07:15:16;13.47;;;6.33;;
18997;SDS011;9632;51.018;4.284;2023-02-28T07:17:41;12.27;;;6.40;;
18997;SDS011;9632;51.018;4.284;2023-02-28T07:20:07;14.63;;;5.77;;
18997;SDS011;9632;51.018;4.284;2023-02-28T07:22:33;11.13;;;6.07;;
18997;SDS011;9632;51.018;4.284;2023-02-28T07:24:59;13.20;;;6.07;;
18997;SDS011;9632;51.018;4.284;2023-02-28T07:27:24;19.27;;;6.37;;
18997;SDS011;9632;51.018;4.284;2023-02-28T07:29:51;17.20;;;6.20;;
18997;SDS011;9632;51.018;4.284;2023-02-28T07:32:17;12.43;;;5.77;;
18997;SDS011;9632;51.018;4.284;2023-02-28T07:34:44;12.07;;;5.73;;
18997;SDS011;9632;51.018;4.284;2023-02-28T07:37:10;14.70;;;5.70;;
18997;SDS011;9632;51.018;4.284;2023-02-28T07:39:36;11.00;;;5.60;;
18997;SDS011;9632;51.018;4.284;2023-02-28T07:42:05;16.40;;;5.50;;
18997;SDS011;9632;51.018;4.284;2023-02-28T07:44:31;13.80;;;5.70;;
18997;SDS011;9632;51.018;4.284;2023-02-28T07:46:57;10.63;;;5.43;;
18997;SDS011;9632;51.018;4.284;2023-02-28T07:49:23;9.20;;;5.10;;
18997;SDS011;9632;51.018;4.284;2023-02-28T07:51:48;11.40;;;5.20;;
18997;SDS011;9632;51.018;4.284;2023-02-28T07:54:14;11.67;;;5.17;;
18997;SDS011;9632;51.018;4.284;2023-02-28T07:56:40;11.83;;;5.13;;
18997;SDS011;9632;51.018;4.284;2023-02-28T07:59:05;10.23;;;5.07;;
18997;SDS011;9632;51.018;4.284;2023-02-28T08:01:31;8.97;;;4.50;;
18997;SDS011;9632;51.018;4.284;2023-02-28T08:03:56;14.43;;;4.90;;
18997;SDS011;9632;51.018;4.284;2023-02-28T08:06:23;10.13;;;5.40;;
18997;SDS011;9632;51.018;4.284;2023-02-28T08:08:50;12.37;;;4.67;;
18997;SDS011;9632;51.018;4.284;2023-02-28T08:11:16;8.27;;;4.53;;
18997;SDS011;9632;51.018;4.284;2023-02-28T08:13:42;10.23;;;4.27;;
18997;SDS011;9632;51.018;4.284;2023-02-28T08:16:09;10.67;;;4.40;;
18997;SDS011;9632;51.018;4.284;2023-02-28T08:18:36;8.07;;;4.03;;
18997;SDS011;9632;51.018;4.284;2023-02-28T08:21:08;12.83;;;4.63;;
18997;SDS011;9632;51.018;4.284;2023-02-28T08:23:35;7.53;;;3.30;;
18997;SDS011;9632;51.018;4.284;2023-02-28T08:26:01;8.57;;;3.80;;
18997;SDS011;9632;51.018;4.284;2023-02-28T08:28:27;5.90;;;3.50;;
18997;SDS011;9632;51.018;4.284;2023-02-28T08:30:53;19.23;;;4.43;;
18997;SDS011;9632;51.018;4.284;2023-02-28T08:33:19;7.80;;;3.13;;
18997;SDS011;9632;51.018;4.284;2023-02-28T08:35:44;8.70;;;3.03;;
18997;SDS011;9632;51.018;4.284;2023-02-28T08:38:10;8.13;;;3.37;;
18997;SDS011;9632;51.018;4.284;2023-02-28T08:40:36;7.93;;;3.40;;
18997;SDS011;9632;51.018;4.284;2023-02-28T08:43:01;9.10;;;3.60;;
18997;SDS011;9632;51.018;4.284;2023-02-28T08:45:27;6.37;;;3.10;;
18997;SDS011;9632;51.018;4.284;2023-02-28T08:47:54;7.33;;;2.87;;
18997;SDS011;9632;51.018;4.284;2023-02-28T08:50:20;9.03;;;2.70;;
18997;SDS011;9632;51.018;4.284;2023-02-28T08:52:47;5.97;;;2.97;;
18997;SDS011;9632;51.018;4.284;2023-02-28T08:55:12;5.57;;;2.77;;
18997;SDS011;9632;51.018;4.284;2023-02-28T08:57:38;6.87;;;3.23;;
18997;SDS011;9632;51.018;4.284;2023-02-28T09:00:04;8.60;;;4.20;;
18997;SDS011;9632;51.018;4.284;2023-02-28T09:02:30;6.97;;;2.93;;
18997;SDS011;9632;51.018;4.284;2023-02-28T09:04:56;6.83;;;2.30;;
18997;SDS011;9632;51.018;4.284;2023-02-28T09:07:23;9.20;;;2.13;;
18997;SDS011;9632;51.018;4.284;2023-02-28T09:09:49;6.67;;;2.50;;
18997;SDS011;9632;51.018;4.284;2023-02-28T09:12:24;6.27;;;2.50;;
18997;SDS011;9632;51.018;4.284;2023-02-28T09:14:51;8.87;;;2.60;;
18997;SDS011;9632;51.018;4.284;2023-02-28T09:17:17;6.00;;;2.27;;
18997;SDS011;9632;51.018;4.284;2023-02-28T09:19:43;7.37;;;2.60;;
18997;SDS011;9632;51.018;4.284;2023-02-28T09:22:09;4.97;;;2.60;;
18997;SDS011;9632;51.018;4.284;2023-02-28T09:24:36;7.50;;;2.60;;
18997;SDS011;9632;51.018;4.284;2023-02-28T09:27:02;5.70;;;2.70;;
18997;SDS011;9632;51.018;4.284;2023-02-28T09:29:29;6.90;;;2.80;;
18997;SDS011;9632;51.018;4.284;2023-02-28T09:31:55;6.27;;;2.57;;
18997;SDS011;9632;51.018;4.284;2023-02-28T09:34:23;4.53;;;2.38;;
18997;SDS011;9632;51.018;4.284;2023-02-28T09:36:49;6.97;;;2.30;;
18997;SDS011;9632;51.018;4.284;2023-02-28T09:39:19;3.60;;;2.00;;
18997;SDS011;9632;51.018;4.284;2023-02-28T09:41:47;5.70;;;2.10;;
18997;SDS011;9632;51.018;4.284;2023-02-28T09:44:33;8.10;;;2.43;;
18997;SDS011;9632;51.018;4.284;2023-02-28T09:47:14;3.70;;;1.70;;
18997;SDS011;9632;51.018;4.284;2023-02-28T09:49:44;7.13;;;1.87;;
18997;SDS011;9632;51.018;4.284;2023-02-28T09:52:20;6.33;;;1.87;;
18997;SDS011;9632;51.018;4.284;2023-02-28T09:54:50;3.35;;;1.40;;
18997;SDS011;9632;51.018;4.284;2023-02-28T10:05:41;3.15;;;1.20;;
18997;SDS011;9632;51.018;4.284;2023-02-28T10:08:19;4.13;;;1.65;;
18997;SDS011;9632;51.018;4.284;2023-02-28T10:11:00;5.65;;;1.67;;
18997;SDS011;9632;51.018;4.284;2023-02-28T10:19:14;3.23;;;1.50;;
18997;SDS011;9632;51.018;4.284;2023-02-28T10:22:20;5.55;;;1.48;;
18997;SDS011;9632;51.018;4.284;2023-02-28T10:24:54;3.92;;;1.50;;
18997;SDS011;9632;51.018;4.284;2023-02-28T10:27:26;22.83;;;2.35;;
18997;SDS011;9632;51.018;4.284;2023-02-28T10:29:56;5.95;;;1.83;;
18997;SDS011;9632;51.018;4.284;2023-02-28T10:35:01;5.32;;;1.83;;
18997;SDS011;9632;51.018;4.284;2023-02-28T10:37:37;4.07;;;1.80;;
18997;SDS011;9632;51.018;4.284;2023-02-28T10:45:26;3.27;;;1.50;;
18997;SDS011;9632;51.018;4.284;2023-02-28T10:58:51;3.83;;;1.37;;
18997;SDS011;9632;51.018;4.284;2023-02-28T11:01:26;6.23;;;2.57;;
18997;SDS011;9632;51.018;4.284;2023-02-28T11:04:49;6.73;;;2.10;;
18997;SDS011;9632;51.018;4.284;2023-02-28T11:07:00;5.20;;;1.60;;
18997;SDS011;9632;51.018;4.284;2023-02-28T11:09:30;3.40;;;1.60;;
18997;SDS011;9632;51.018;4.284;2023-02-28T11:12:00;5.07;;;2.47;;
18997;SDS011;9632;51.018;4.284;2023-02-28T11:14:30;4.63;;;1.83;;
18997;SDS011;9632;51.018;4.284;2023-02-28T11:17:00;2.43;;;1.40;;
18997;SDS011;9632;51.018;4.284;2023-02-28T11:19:58;2.27;;;1.30;;
18997;SDS011;9632;51.018;4.284;2023-02-28T11:22:37;4.32;;;1.00;;
18997;SDS011;9632;51.018;4.284;2023-02-28T11:25:30;2.10;;;1.00;;
18997;SDS011;9632;51.018;4.284;2023-02-28T11:28:05;1.87;;;1.00;;
18997;SDS011;9632;51.018;4.284;2023-02-28T11:36:22;5.53;;;1.50;;
18997;SDS011;9632;51.018;4.284;2023-02-28T11:39:08;2.80;;;1.30;;
18997;SDS011;9632;51.018;4.284;2023-02-28T11:47:35;3.10;;;1.42;;
18997;SDS011;9632;51.018;4.284;2023-02-28T11:56:13;2.20;;;1.30;;
18997;SDS011;9632;51.018;4.284;2023-02-28T11:58:46;2.20;;;1.30;;
18997;SDS011;9632;51.018;4.284;2023-02-28T12:01:28;2.90;;;1.27;;
18997;SDS011;9632;51.018;4.284;2023-02-28T12:06:59;3.03;;;1.50;;
18997;SDS011;9632;51.018;4.284;2023-02-28T12:14:47;2.70;;;1.50;;
18997;SDS011;9632;51.018;4.284;2023-02-28T12:17:33;3.75;;;1.50;;
18997;SDS011;9632;51.018;4.284;2023-02-28T12:22:57;2.08;;;1.30;;
18997;SDS011;9632;51.018;4.284;2023-02-28T12:28:21;3.23;;;1.30;;
18997;SDS011;9632;51.018;4.284;2023-02-28T12:31:11;2.67;;;1.40;;
18997;SDS011;9632;51.018;4.284;2023-02-28T12:33:42;3.33;;;1.33;;
18997;SDS011;9632;51.018;4.284;2023-02-28T12:36:11;3.87;;;1.53;;
18997;SDS011;9632;51.018;4.284;2023-02-28T12:38:45;4.60;;;1.50;;
18997;SDS011;9632;51.018;4.284;2023-02-28T12:41:19;75.10;;;5.78;;
18997;SDS011;9632;51.018;4.284;2023-02-28T12:43:52;3.78;;;1.60;;
18997;SDS011;9632;51.018;4.284;2023-02-28T12:46:27;2.28;;;1.45;;
18997;SDS011;9632;51.018;4.284;2023-02-28T12:49:36;2.13;;;1.27;;
18997;SDS011;9632;51.018;4.284;2023-02-28T12:52:03;2.28;;;1.23;;
18997;SDS011;9632;51.018;4.284;2023-02-28T12:57:38;5.32;;;2.30;;
18997;SDS011;9632;51.018;4.284;2023-02-28T13:00:24;6.22;;;1.70;;
18997;SDS011;9632;51.018;4.284;2023-02-28T13:05:24;2.63;;;1.13;;
18997;SDS011;9632;51.018;4.284;2023-02-28T13:11:28;2.78;;;1.50;;
18997;SDS011;9632;51.018;4.284;2023-02-28T13:14:00;6.97;;;1.90;;
18997;SDS011;9632;51.018;4.284;2023-02-28T13:16:47;3.10;;;1.40;;
18997;SDS011;9632;51.018;4.284;2023-02-28T13:19:25;2.55;;;1.40;;
18997;SDS011;9632;51.018;4.284;2023-02-28T13:21:53;3.53;;;1.50;;
18997;SDS011;9632;51.018;4.284;2023-02-28T13:24:46;4.55;;;1.83;;
18997;SDS011;9632;51.018;4.284;2023-02-28T13:29:40;3.72;;;1.85;;
18997;SDS011;9632;51.018;4.284;2023-02-28T13:34:36;4.70;;;1.70;;
18997;SDS011;9632;51.018;4.284;2023-02-28T13:42:35;7.20;;;1.90;;
18997;SDS011;9632;51.018;4.284;2023-02-28T13:47:53;3.15;;;1.88;;
18997;SDS011;9632;51.018;4.284;2023-02-28T14:05:44;3.08;;;1.60;;
18997;SDS011;9632;51.018;4.284;2023-02-28T14:10:46;8.45;;;2.10;;
18997;SDS011;9632;51.018;4.284;2023-02-28T14:16:26;4.20;;;1.83;;
18997;SDS011;9632;51.018;4.284;2023-02-28T14:19:14;4.35;;;1.70;;
18997;SDS011;9632;51.018;4.284;2023-02-28T14:21:53;4.95;;;1.80;;
18997;SDS011;9632;51.018;4.284;2023-02-28T14:30:37;3.13;;;1.70;;
18997;SDS011;9632;51.018;4.284;2023-02-28T14:33:35;5.57;;;1.70;;
18997;SDS011;9632;51.018;4.284;2023-02-28T14:36:39;6.25;;;1.85;;
18997;SDS011;9632;51.018;4.284;2023-02-28T14:41:44;4.18;;;1.75;;
18997;SDS011;9632;51.018;4.284;2023-02-28T14:44:15;8.40;;;2.00;;
18997;SDS011;9632;51.018;4.284;2023-02-28T14:46:55;3.53;;;1.90;;
18997;SDS011;9632;51.018;4.284;2023-02-28T14:49:31;5.25;;;1.77;;
18997;SDS011;9632;51.018;4.284;2023-02-28T14:52:05;3.42;;;2.00;;
18997;SDS011;9632;51.018;4.284;2023-02-28T14:54:34;5.63;;;2.05;;
18997;SDS011;9632;51.018;4.284;2023-02-28T14:57:01;6.75;;;1.90;;
18997;SDS011;9632;51.018;4.284;2023-02-28T14:59:34;6.93;;;1.90;;
18997;SDS011;9632;51.018;4.284;2023-02-28T15:02:16;5.57;;;2.10;;
18997;SDS011;9632;51.018;4.284;2023-02-28T15:04:58;4.18;;;1.85;;
18997;SDS011;9632;51.018;4.284;2023-02-28T15:07:45;6.55;;;2.35;;
18997;SDS011;9632;51.018;4.284;2023-02-28T15:10:20;6.50;;;2.45;;
18997;SDS011;9632;51.018;4.284;2023-02-28T15:12:53;4.07;;;2.08;;
18997;SDS011;9632;51.018;4.284;2023-02-28T15:15:22;4.75;;;1.80;;
18997;SDS011;9632;51.018;4.284;2023-02-28T15:17:52;5.13;;;2.38;;
18997;SDS011;9632;51.018;4.284;2023-02-28T15:20:21;5.00;;;2.30;;
18997;SDS011;9632;51.018;4.284;2023-02-28T15:22:49;5.75;;;1.80;;
18997;SDS011;9632;51.018;4.284;2023-02-28T15:25:19;4.68;;;2.15;;
18997;SDS011;9632;51.018;4.284;2023-02-28T15:27:48;8.75;;;2.20;;
18997;SDS011;9632;51.018;4.284;2023-02-28T15:32:45;8.80;;;2.05;;
18997;SDS011;9632;51.018;4.284;2023-02-28T15:35:30;8.00;;;2.40;;
18997;SDS011;9632;51.018;4.284;2023-02-28T15:40:49;8.03;;;2.00;;
18997;SDS011;9632;51.018;4.284;2023-02-28T15:43:23;4.28;;;1.90;;
18997;SDS011;9632;51.018;4.284;2023-02-28T15:54:10;5.87;;;2.40;;
18997;SDS011;9632;51.018;4.284;2023-02-28T15:56:43;3.47;;;1.73;;
18997;SDS011;9632;51.018;4.284;2023-02-28T15:59:21;3.75;;;2.22;;
18997;SDS011;9632;51.018;4.284;2023-02-28T16:04:34;6.13;;;2.10;;
18997;SDS011;9632;51.018;4.284;2023-02-28T16:07:12;6.10;;;2.10;;
18997;SDS011;9632;51.018;4.284;2023-02-28T16:09:38;4.90;;;1.88;;
18997;SDS011;9632;51.018;4.284;2023-02-28T16:12:04;4.90;;;2.13;;
18997;SDS011;9632;51.018;4.284;2023-02-28T16:14:30;4.22;;;1.88;;
18997;SDS011;9632;51.018;4.284;2023-02-28T16:16:57;4.07;;;2.07;;
18997;SDS011;9632;51.018;4.284;2023-02-28T16:19:28;4.73;;;2.33;;
18997;SDS011;9632;51.018;4.284;2023-02-28T16:21:54;3.78;;;2.00;;
18997;SDS011;9632;51.018;4.284;2023-02-28T16:24:19;8.73;;;2.17;;
18997;SDS011;9632;51.018;4.284;2023-02-28T16:26:46;5.38;;;2.30;;
18997;SDS011;9632;51.018;4.284;2023-02-28T16:29:13;4.43;;;2.28;;
18997;SDS011;9632;51.018;4.284;2023-02-28T16:31:44;5.50;;;2.28;;
18997;SDS011;9632;51.018;4.284;2023-02-28T16:34:10;5.00;;;2.35;;
18997;SDS011;9632;51.018;4.284;2023-02-28T16:36:35;4.22;;;1.77;;
18997;SDS011;9632;51.018;4.284;2023-02-28T16:39:01;4.55;;;2.05;;
18997;SDS011;9632;51.018;4.284;2023-02-28T16:41:28;5.40;;;2.40;;
18997;SDS011;9632;51.018;4.284;2023-02-28T16:43:54;4.28;;;2.25;;
18997;SDS011;9632;51.018;4.284;2023-02-28T16:46:27;5.70;;;2.08;;
18997;SDS011;9632;51.018;4.284;2023-02-28T16:48:58;7.15;;;2.40;;
18997;SDS011;9632;51.018;4.284;2023-02-28T16:51:24;10.43;;;2.30;;
18997;SDS011;9632;51.018;4.284;2023-02-28T16:53:50;4.78;;;2.10;;
18997;SDS011;9632;51.018;4.284;2023-02-28T16:56:22;4.75;;;2.40;;
18997;SDS011;9632;51.018;4.284;2023-02-28T16:58:50;5.15;;;2.22;;
18997;SDS011;9632;51.018;4.284;2023-02-28T17:01:17;5.15;;;2.17;;
18997;SDS011;9632;51.018;4.284;2023-02-28T17:03:47;5.68;;;2.35;;
18997;SDS011;9632;51.018;4.284;2023-02-28T17:06:16;3.75;;;2.20;;
18997;SDS011;9632;51.018;4.284;2023-02-28T17:08:48;5.72;;;2.35;;
18997;SDS011;9632;51.018;4.284;2023-02-28T17:11:17;6.43;;;2.45;;
18997;SDS011;9632;51.018;4.284;2023-02-28T17:13:43;5.95;;;2.50;;
18997;SDS011;9632;51.018;4.284;2023-02-28T17:16:25;7.53;;;2.83;;
18997;SDS011;9632;51.018;4.284;2023-02-28T17:18:59;5.35;;;2.55;;
18997;SDS011;9632;51.018;4.284;2023-02-28T17:21:30;8.23;;;2.63;;
18997;SDS011;9632;51.018;4.284;2023-02-28T17:23:56;4.47;;;2.20;;
18997;SDS011;9632;51.018;4.284;2023-02-28T17:26:22;3.85;;;2.33;;
18997;SDS011;9632;51.018;4.284;2023-02-28T17:28:52;4.90;;;2.28;;
18997;SDS011;9632;51.018;4.284;2023-02-28T17:31:23;5.88;;;2.63;;
18997;SDS011;9632;51.018;4.284;2023-02-28T17:33:49;7.73;;;2.70;;
18997;SDS011;9632;51.018;4.284;2023-02-28T17:36:16;11.13;;;3.45;;
18997;SDS011;9632;51.018;4.284;2023-02-28T17:38:50;13.90;;;4.75;;
18997;SDS011;9632;51.018;4.284;2023-02-28T17:41:17;7.00;;;3.20;;
18997;SDS011;9632;51.018;4.284;2023-02-28T17:43:42;10.93;;;3.10;;
18997;SDS011;9632;51.018;4.284;2023-02-28T17:46:11;6.60;;;3.30;;
18997;SDS011;9632;51.018;4.284;2023-02-28T17:48:45;6.27;;;3.00;;
18997;SDS011;9632;51.018;4.284;2023-02-28T17:51:12;8.38;;;3.15;;
18997;SDS011;9632;51.018;4.284;2023-02-28T17:53:38;4.82;;;2.60;;
18997;SDS011;9632;51.018;4.284;2023-02-28T17:56:05;9.80;;;2.88;;
18997;SDS011;9632;51.018;4.284;2023-02-28T17:58:35;6.38;;;3.20;;